sensor_id;sensor_type;location;lat;lon;timestamp;pressure;altitude;pressure_sealevel;temperature;humidity
71457;BME280;59263;48.160;11.752;2023-05-03T00:01:19;96565.88;;;6.51;100.00
71457;BME280;59263;48.160;11.752;2023-05-03T00:03:45;96543.41;;;6.40;100.00
71457;BME280;59263;48.160;11.752;2023-05-03T00:06:11;96569.06;;;6.54;100.00
71457;BME280;59263;48.160;11.752;2023-05-03T00:08:37;96563.19;;;6.52;100.00
71457;BME280;59263;48.160;11.752;2023-05-03T00:11:03;96561.66;;;6.50;100.00
71457;BME280;59263;48.160;11.752;2023-05-03T00:13:28;96555.34;;;6.41;100.00
71457;BME280;59263;48.160;11.752;2023-05-03T00:15:54;96588.91;;;6.52;100.00
71457;BME280;59263;48.160;11.752;2023-05-03T00:18:19;96576.25;;;6.49;100.00
71457;BME280;59263;48.160;11.752;2023-05-03T00:20:44;96572.63;;;6.39;100.00
71457;BME280;59263;48.160;11.752;2023-05-03T00:23:10;96571.63;;;6.42;100.00
71457;BME280;59263;48.160;11.752;2023-05-03T00:25:35;96576.75;;;6.42;100.00
71457;BME280;59263;48.160;11.752;2023-05-03T00:28:01;96572.25;;;6.45;100.00
71457;BME280;59263;48.160;11.752;2023-05-03T00:30:34;96551.88;;;6.42;100.00
71457;BME280;59263;48.160;11.752;2023-05-03T00:32:59;96565.75;;;6.52;100.00
71457;BME280;59263;48.160;11.752;2023-05-03T00:35:26;96543.63;;;6.37;100.00
71457;BME280;59263;48.160;11.752;2023-05-03T00:37:51;96573.69;;;6.49;100.00
71457;BME280;59263;48.160;11.752;2023-05-03T00:40:17;96562.78;;;6.46;100.00
71457;BME280;59263;48.160;11.752;2023-05-03T00:42:43;96536.13;;;6.34;100.00
71457;BME280;59263;48.160;11.752;2023-05-03T00:45:09;96575.13;;;6.53;100.00
71457;BME280;59263;48.160;11.752;2023-05-03T00:47:35;96564.72;;;6.42;100.00
71457;BME280;59263;48.160;11.752;2023-05-03T00:50:01;96571.69;;;6.40;100.00
71457;BME280;59263;48.160;11.752;2023-05-03T00:52:27;96582.91;;;6.39;100.00
71457;BME280;59263;48.160;11.752;2023-05-03T00:54:55;96568.47;;;6.24;100.00
71457;BME280;59263;48.160;11.752;2023-05-03T00:57:22;96564.47;;;6.20;100.00
71457;BME280;59263;48.160;11.752;2023-05-03T00:59:48;96563.78;;;6.30;100.00
71457;BME280;59263;48.160;11.752;2023-05-03T01:02:14;96538.03;;;6.18;100.00
71457;BME280;59263;48.160;11.752;2023-05-03T01:04:39;96554.94;;;6.35;100.00
71457;BME280;59263;48.160;11.752;2023-05-03T01:12:46;96531.25;;;6.17;100.00
71457;BME280;59263;48.160;11.752;2023-05-03T01:17:58;96553.50;;;6.30;100.00
71457;BME280;59263;48.160;11.752;2023-05-03T01:20:29;96561.84;;;6.47;100.00
71457;BME280;59263;48.160;11.752;2023-05-03T01:25:23;96560.09;;;6.47;100.00
71457;BME280;59263;48.160;11.752;2023-05-03T01:27:49;96576.38;;;6.61;100.00
71457;BME280;59263;48.160;11.752;2023-05-03T01:30:15;96538.81;;;6.45;100.00
71457;BME280;59263;48.160;11.752;2023-05-03T01:35:19;96554.16;;;6.60;100.00
71457;BME280;59263;48.160;11.752;2023-05-03T01:37:48;96531.63;;;6.50;100.00
71457;BME280;59263;48.160;11.752;2023-05-03T01:40:16;96570.66;;;6.83;100.00
71457;BME280;59263;48.160;11.752;2023-05-03T01:42:44;96578.47;;;6.81;100.00
71457;BME280;59263;48.160;11.752;2023-05-03T01:45:11;96565.59;;;6.81;100.00
71457;BME280;59263;48.160;11.752;2023-05-03T01:47:36;96557.69;;;6.84;100.00
71457;BME280;59263;48.160;11.752;2023-05-03T01:50:02;96552.53;;;6.84;100.00
71457;BME280;59263;48.160;11.752;2023-05-03T01:52:27;96560.78;;;6.89;100.00
71457;BME280;59263;48.160;11.752;2023-05-03T01:54:53;96524.78;;;6.64;100.00
71457;BME280;59263;48.160;11.752;2023-05-03T01:57:18;96538.34;;;6.66;100.00
71457;BME280;59263;48.160;11.752;2023-05-03T01:59:43;96554.69;;;6.77;100.00
71457;BME280;59263;48.160;11.752;2023-05-03T02:02:09;96525.97;;;6.71;100.00
71457;BME280;59263;48.160;11.752;2023-05-03T02:04:34;96556.88;;;6.96;100.00
71457;BME280;59263;48.160;11.752;2023-05-03T02:07:00;96514.25;;;6.67;100.00
71457;BME280;59263;48.160;11.752;2023-05-03T02:09:25;96545.56;;;6.86;100.00
71457;BME280;59263;48.160;11.752;2023-05-03T02:11:50;96551.31;;;7.02;100.00
71457;BME280;59263;48.160;11.752;2023-05-03T02:14:16;96566.34;;;7.09;100.00
71457;BME280;59263;48.160;11.752;2023-05-03T02:16:41;96565.44;;;7.10;100.00
71457;BME280;59263;48.160;11.752;2023-05-03T02:19:07;96553.78;;;7.04;100.00
71457;BME280;59263;48.160;11.752;2023-05-03T02:21:33;96555.03;;;6.98;100.00
71457;BME280;59263;48.160;11.752;2023-05-03T02:23:59;96539.59;;;6.98;100.00
71457;BME280;59263;48.160;11.752;2023-05-03T02:26:25;96572.31;;;7.22;100.00
71457;BME280;59263;48.160;11.752;2023-05-03T02:28:50;96587.34;;;7.28;100.00
71457;BME280;59263;48.160;11.752;2023-05-03T02:31:16;96559.13;;;7.26;100.00
71457;BME280;59263;48.160;11.752;2023-05-03T02:33:41;96550.78;;;7.23;100.00
71457;BME280;59263;48.160;11.752;2023-05-03T02:36:07;96546.69;;;7.20;100.00
71457;BME280;59263;48.160;11.752;2023-05-03T02:38:33;96535.03;;;7.15;100.00
71457;BME280;59263;48.160;11.752;2023-05-03T02:40:58;96551.63;;;7.23;100.00
71457;BME280;59263;48.160;11.752;2023-05-03T02:43:24;96570.84;;;7.43;100.00
71457;BME280;59263;48.160;11.752;2023-05-03T02:45:49;96528.66;;;7.20;100.00
71457;BME280;59263;48.160;11.752;2023-05-03T02:48:15;96536.38;;;7.08;100.00
71457;BME280;59263;48.160;11.752;2023-05-03T02:50:40;96523.53;;;6.95;100.00
71457;BME280;59263;48.160;11.752;2023-05-03T02:53:06;96508.94;;;6.83;100.00
71457;BME280;59263;48.160;11.752;2023-05-03T02:55:31;96539.19;;;7.05;100.00
71457;BME280;59263;48.160;11.752;2023-05-03T02:57:57;96555.84;;;7.12;100.00
71457;BME280;59263;48.160;11.752;2023-05-03T03:00:22;96568.22;;;7.19;100.00
71457;BME280;59263;48.160;11.752;2023-05-03T03:02:48;96554.81;;;7.01;100.00
71457;BME280;59263;48.160;11.752;2023-05-03T03:05:13;96549.69;;;7.01;100.00
71457;BME280;59263;48.160;11.752;2023-05-03T03:07:39;96546.91;;;7.05;100.00
71457;BME280;59263;48.160;11.752;2023-05-03T03:10:05;96543.72;;;7.01;100.00
71457;BME280;59263;48.160;11.752;2023-05-03T03:12:33;96552.34;;;7.00;100.00
71457;BME280;59263;48.160;11.752;2023-05-03T03:14:59;96568.94;;;7.09;100.00
71457;BME280;59263;48.160;11.752;2023-05-03T03:17:24;96568.69;;;7.12;100.00
71457;BME280;59263;48.160;11.752;2023-05-03T03:19:50;96560.56;;;7.18;100.00
71457;BME280;59263;48.160;11.752;2023-05-03T03:22:15;96539.38;;;7.01;100.00
71457;BME280;59263;48.160;11.752;2023-05-03T03:24:40;96578.50;;;7.32;100.00
71457;BME280;59263;48.160;11.752;2023-05-03T03:27:06;96527.16;;;7.05;100.00
71457;BME280;59263;48.160;11.752;2023-05-03T03:29:40;96523.84;;;7.03;100.00
71457;BME280;59263;48.160;11.752;2023-05-03T03:32:06;96520.25;;;7.06;100.00
71457;BME280;59263;48.160;11.752;2023-05-03T03:34:31;96528.56;;;7.22;100.00
71457;BME280;59263;48.160;11.752;2023-05-03T03:36:57;96542.66;;;7.29;100.00
71457;BME280;59263;48.160;11.752;2023-05-03T03:39:22;96543.28;;;7.33;100.00
71457;BME280;59263;48.160;11.752;2023-05-03T03:41:48;96543.06;;;7.36;100.00
71457;BME280;59263;48.160;11.752;2023-05-03T03:44:13;96580.84;;;7.48;100.00
71457;BME280;59263;48.160;11.752;2023-05-03T03:46:39;96573.13;;;7.35;100.00
71457;BME280;59263;48.160;11.752;2023-05-03T03:49:04;96580.25;;;7.32;100.00
71457;BME280;59263;48.160;11.752;2023-05-03T03:51:29;96545.78;;;7.09;100.00
71457;BME280;59263;48.160;11.752;2023-05-03T03:53:55;96582.28;;;7.39;100.00
71457;BME280;59263;48.160;11.752;2023-05-03T03:56:20;96563.25;;;7.29;100.00
71457;BME280;59263;48.160;11.752;2023-05-03T03:58:46;96495.56;;;6.90;100.00
71457;BME280;59263;48.160;11.752;2023-05-03T04:01:11;96584.47;;;7.45;100.00
71457;BME280;59263;48.160;11.752;2023-05-03T04:03:36;96541.63;;;7.19;100.00
71457;BME280;59263;48.160;11.752;2023-05-03T04:06:02;96587.53;;;7.50;100.00
71457;BME280;59263;48.160;11.752;2023-05-03T04:08:27;96568.50;;;7.40;100.00
71457;BME280;59263;48.160;11.752;2023-05-03T04:10:53;96578.69;;;7.42;100.00
71457;BME280;59263;48.160;11.752;2023-05-03T04:13:18;96574.56;;;7.39;100.00
71457;BME280;59263;48.160;11.752;2023-05-03T04:15:43;96585.06;;;7.36;100.00
71457;BME280;59263;48.160;11.752;2023-05-03T04:18:09;96571.38;;;7.23;100.00
71457;BME280;59263;48.160;11.752;2023-05-03T04:20:35;96585.91;;;7.37;100.00
71457;BME280;59263;48.160;11.752;2023-05-03T04:23:01;96531.34;;;6.93;100.00
71457;BME280;59263;48.160;11.752;2023-05-03T04:25:26;96592.91;;;7.35;100.00
71457;BME280;59263;48.160;11.752;2023-05-03T04:27:52;96585.72;;;7.27;100.00
71457;BME280;59263;48.160;11.752;2023-05-03T04:30:17;96555.44;;;7.05;100.00
71457;BME280;59263;48.160;11.752;2023-05-03T04:32:44;96585.91;;;7.24;100.00
71457;BME280;59263;48.160;11.752;2023-05-03T04:35:09;96605.56;;;7.25;100.00
71457;BME280;59263;48.160;11.752;2023-05-03T04:37:37;96608.34;;;7.22;100.00
71457;BME280;59263;48.160;11.752;2023-05-03T04:40:04;96568.72;;;6.99;100.00
71457;BME280;59263;48.160;11.752;2023-05-03T04:42:34;96607.31;;;7.24;100.00
71457;BME280;59263;48.160;11.752;2023-05-03T04:45:00;96592.41;;;7.17;100.00
71457;BME280;59263;48.160;11.752;2023-05-03T04:47:31;96579.50;;;7.04;100.00
71457;BME280;59263;48.160;11.752;2023-05-03T04:49:56;96604.22;;;7.32;100.00
71457;BME280;59263;48.160;11.752;2023-05-03T04:52:22;96603.41;;;7.32;100.00
71457;BME280;59263;48.160;11.752;2023-05-03T04:54:47;96596.00;;;7.27;100.00
71457;BME280;59263;48.160;11.752;2023-05-03T04:57:12;96586.63;;;7.26;100.00
71457;BME280;59263;48.160;11.752;2023-05-03T04:59:38;96607.94;;;7.41;100.00
71457;BME280;59263;48.160;11.752;2023-05-03T05:02:03;96618.63;;;7.47;100.00
71457;BME280;59263;48.160;11.752;2023-05-03T05:04:28;96609.78;;;7.64;100.00
71457;BME280;59263;48.160;11.752;2023-05-03T05:06:54;96627.97;;;7.74;100.00
71457;BME280;59263;48.160;11.752;2023-05-03T05:09:24;96629.09;;;7.95;100.00
71457;BME280;59263;48.160;11.752;2023-05-03T05:11:50;96614.28;;;7.86;100.00
71457;BME280;59263;48.160;11.752;2023-05-03T05:14:16;96626.63;;;7.81;100.00
71457;BME280;59263;48.160;11.752;2023-05-03T05:16:41;96632.19;;;7.88;100.00
71457;BME280;59263;48.160;11.752;2023-05-03T05:19:07;96626.09;;;8.02;100.00
71457;BME280;59263;48.160;11.752;2023-05-03T05:21:32;96616.13;;;7.84;100.00
71457;BME280;59263;48.160;11.752;2023-05-03T05:23:58;96635.38;;;7.91;100.00
71457;BME280;59263;48.160;11.752;2023-05-03T05:26:23;96612.59;;;7.85;100.00
71457;BME280;59263;48.160;11.752;2023-05-03T05:28:50;96635.88;;;7.96;100.00
71457;BME280;59263;48.160;11.752;2023-05-03T05:31:15;96636.25;;;8.16;100.00
71457;BME280;59263;48.160;11.752;2023-05-03T05:33:41;96641.63;;;8.13;100.00
71457;BME280;59263;48.160;11.752;2023-05-03T05:36:06;96627.41;;;8.07;100.00
71457;BME280;59263;48.160;11.752;2023-05-03T05:38:31;96620.38;;;8.09;100.00
71457;BME280;59263;48.160;11.752;2023-05-03T05:40:57;96642.59;;;8.23;100.00
71457;BME280;59263;48.160;11.752;2023-05-03T05:43:22;96645.41;;;8.20;100.00
71457;BME280;59263;48.160;11.752;2023-05-03T05:45:47;96631.53;;;8.10;100.00
71457;BME280;59263;48.160;11.752;2023-05-03T05:48:13;96649.44;;;8.24;100.00
71457;BME280;59263;48.160;11.752;2023-05-03T05:50:39;96610.97;;;7.84;100.00
71457;BME280;59263;48.160;11.752;2023-05-03T05:53:04;96649.06;;;8.05;100.00
71457;BME280;59263;48.160;11.752;2023-05-03T05:55:29;96649.56;;;7.97;100.00
71457;BME280;59263;48.160;11.752;2023-05-03T05:57:55;96646.31;;;8.19;100.00
71457;BME280;59263;48.160;11.752;2023-05-03T06:00:20;96652.34;;;8.19;100.00
71457;BME280;59263;48.160;11.752;2023-05-03T06:02:46;96658.72;;;8.14;100.00
71457;BME280;59263;48.160;11.752;2023-05-03T06:05:11;96653.38;;;8.17;100.00
71457;BME280;59263;48.160;11.752;2023-05-03T06:07:37;96647.81;;;8.10;100.00
71457;BME280;59263;48.160;11.752;2023-05-03T06:10:03;96658.13;;;8.10;100.00
71457;BME280;59263;48.160;11.752;2023-05-03T06:12:29;96655.59;;;8.21;100.00
71457;BME280;59263;48.160;11.752;2023-05-03T06:14:54;96655.38;;;8.37;100.00
71457;BME280;59263;48.160;11.752;2023-05-03T06:17:19;96637.44;;;8.23;100.00
71457;BME280;59263;48.160;11.752;2023-05-03T06:19:46;96668.06;;;8.40;100.00
71457;BME280;59263;48.160;11.752;2023-05-03T06:22:13;96651.47;;;8.19;100.00
71457;BME280;59263;48.160;11.752;2023-05-03T06:24:39;96649.44;;;8.11;100.00
71457;BME280;59263;48.160;11.752;2023-05-03T06:27:04;96651.41;;;8.08;100.00
71457;BME280;59263;48.160;11.752;2023-05-03T06:29:30;96672.56;;;8.13;100.00
71457;BME280;59263;48.160;11.752;2023-05-03T06:31:55;96655.41;;;8.12;100.00
71457;BME280;59263;48.160;11.752;2023-05-03T06:34:20;96667.69;;;8.21;100.00
71457;BME280;59263;48.160;11.752;2023-05-03T06:36:46;96634.03;;;7.98;100.00
71457;BME280;59263;48.160;11.752;2023-05-03T06:39:12;96686.63;;;8.45;100.00
71457;BME280;59263;48.160;11.752;2023-05-03T06:41:37;96690.84;;;8.34;100.00
71457;BME280;59263;48.160;11.752;2023-05-03T06:44:03;96683.03;;;8.22;100.00
71457;BME280;59263;48.160;11.752;2023-05-03T06:46:28;96682.81;;;8.25;100.00
71457;BME280;59263;48.160;11.752;2023-05-03T06:48:54;96682.28;;;8.33;100.00
71457;BME280;59263;48.160;11.752;2023-05-03T06:51:22;96676.00;;;8.37;100.00
71457;BME280;59263;48.160;11.752;2023-05-03T06:53:52;96672.50;;;8.38;100.00
71457;BME280;59263;48.160;11.752;2023-05-03T06:56:17;96645.06;;;8.37;100.00
71457;BME280;59263;48.160;11.752;2023-05-03T06:58:42;96684.16;;;8.68;100.00
71457;BME280;59263;48.160;11.752;2023-05-03T07:01:08;96669.66;;;8.78;100.00
71457;BME280;59263;48.160;11.752;2023-05-03T07:03:33;96669.50;;;8.68;100.00
71457;BME280;59263;48.160;11.752;2023-05-03T07:05:58;96676.91;;;8.73;100.00
71457;BME280;59263;48.160;11.752;2023-05-03T07:08:24;96670.09;;;8.72;100.00
71457;BME280;59263;48.160;11.752;2023-05-03T07:10:49;96668.75;;;8.79;100.00
71457;BME280;59263;48.160;11.752;2023-05-03T07:13:14;96664.13;;;9.07;100.00
71457;BME280;59263;48.160;11.752;2023-05-03T07:15:40;96666.75;;;9.18;100.00
71457;BME280;59263;48.160;11.752;2023-05-03T07:18:05;96659.44;;;9.12;100.00
71457;BME280;59263;48.160;11.752;2023-05-03T07:20:31;96666.69;;;9.31;100.00
71457;BME280;59263;48.160;11.752;2023-05-03T07:22:56;96653.22;;;9.61;100.00
71457;BME280;59263;48.160;11.752;2023-05-03T07:25:22;96668.47;;;9.64;100.00
71457;BME280;59263;48.160;11.752;2023-05-03T07:27:47;96628.78;;;9.42;100.00
71457;BME280;59263;48.160;11.752;2023-05-03T07:30:13;96677.16;;;9.63;100.00
71457;BME280;59263;48.160;11.752;2023-05-03T07:32:38;96630.84;;;9.37;100.00
71457;BME280;59263;48.160;11.752;2023-05-03T07:35:04;96661.44;;;9.66;100.00
71457;BME280;59263;48.160;11.752;2023-05-03T07:37:31;96659.31;;;9.60;100.00
71457;BME280;59263;48.160;11.752;2023-05-03T07:39:56;96676.72;;;9.69;100.00
71457;BME280;59263;48.160;11.752;2023-05-03T07:42:22;96654.50;;;9.66;100.00
71457;BME280;59263;48.160;11.752;2023-05-03T07:44:47;96668.00;;;9.92;100.00
71457;BME280;59263;48.160;11.752;2023-05-03T07:47:12;96638.75;;;9.81;100.00
71457;BME280;59263;48.160;11.752;2023-05-03T07:49:39;96660.03;;;9.96;100.00
71457;BME280;59263;48.160;11.752;2023-05-03T07:52:04;96659.31;;;10.05;100.00
71457;BME280;59263;48.160;11.752;2023-05-03T07:54:30;96667.75;;;10.18;100.00
71457;BME280;59263;48.160;11.752;2023-05-03T07:56:55;96664.22;;;10.19;100.00
71457;BME280;59263;48.160;11.752;2023-05-03T07:59:20;96648.13;;;10.15;100.00
71457;BME280;59263;48.160;11.752;2023-05-03T08:01:45;96661.06;;;10.27;100.00
71457;BME280;59263;48.160;11.752;2023-05-03T08:04:11;96659.31;;;10.38;100.00
71457;BME280;59263;48.160;11.752;2023-05-03T08:06:36;96658.16;;;10.31;100.00
71457;BME280;59263;48.160;11.752;2023-05-03T08:09:03;96662.72;;;10.39;100.00
71457;BME280;59263;48.160;11.752;2023-05-03T08:11:28;96660.81;;;10.41;100.00
71457;BME280;59263;48.160;11.752;2023-05-03T08:13:54;96661.75;;;10.40;100.00
71457;BME280;59263;48.160;11.752;2023-05-03T08:16:20;96667.34;;;10.56;100.00
71457;BME280;59263;48.160;11.752;2023-05-03T08:18:45;96664.19;;;10.53;100.00
71457;BME280;59263;48.160;11.752;2023-05-03T08:21:11;96653.25;;;10.49;100.00
71457;BME280;59263;48.160;11.752;2023-05-03T08:23:38;96661.16;;;10.48;100.00
71457;BME280;59263;48.160;11.752;2023-05-03T08:26:04;96666.56;;;10.45;100.00
71457;BME280;59263;48.160;11.752;2023-05-03T08:28:31;96644.59;;;10.39;100.00
71457;BME280;59263;48.160;11.752;2023-05-03T08:30:57;96667.28;;;10.47;100.00
71457;BME280;59263;48.160;11.752;2023-05-03T08:33:22;96677.41;;;10.50;100.00
71457;BME280;59263;48.160;11.752;2023-05-03T08:35:48;96660.09;;;10.50;100.00
71457;BME280;59263;48.160;11.752;2023-05-03T08:38:13;96644.25;;;10.32;100.00
71457;BME280;59263;48.160;11.752;2023-05-03T08:40:39;96677.25;;;10.51;100.00
71457;BME280;59263;48.160;11.752;2023-05-03T08:43:07;96682.81;;;10.47;100.00
71457;BME280;59263;48.160;11.752;2023-05-03T08:45:33;96670.09;;;10.55;100.00
71457;BME280;59263;48.160;11.752;2023-05-03T08:47:59;96671.25;;;10.62;100.00
71457;BME280;59263;48.160;11.752;2023-05-03T08:50:27;96658.63;;;10.69;100.00
71457;BME280;59263;48.160;11.752;2023-05-03T08:52:53;96654.97;;;10.71;100.00
71457;BME280;59263;48.160;11.752;2023-05-03T08:55:18;96641.00;;;10.62;100.00
71457;BME280;59263;48.160;11.752;2023-05-03T08:57:44;96655.66;;;10.73;100.00
71457;BME280;59263;48.160;11.752;2023-05-03T09:00:09;96673.88;;;10.83;100.00
71457;BME280;59263;48.160;11.752;2023-05-03T09:02:36;96655.97;;;10.91;100.00
71457;BME280;59263;48.160;11.752;2023-05-03T09:08:07;96618.19;;;10.88;100.00
71457;BME280;59263;48.160;11.752;2023-05-03T09:10:38;96662.50;;;11.27;100.00
71457;BME280;59263;48.160;11.752;2023-05-03T09:13:05;96665.59;;;11.42;100.00
71457;BME280;59263;48.160;11.752;2023-05-03T09:15:31;96639.63;;;11.32;100.00
71457;BME280;59263;48.160;11.752;2023-05-03T09:18:19;96656.91;;;11.53;100.00
71457;BME280;59263;48.160;11.752;2023-05-03T09:20:46;96663.50;;;11.57;100.00
71457;BME280;59263;48.160;11.752;2023-05-03T09:23:28;96672.13;;;11.67;100.00
71457;BME280;59263;48.160;11.752;2023-05-03T09:25:56;96641.09;;;11.56;100.00
71457;BME280;59263;48.160;11.752;2023-05-03T09:28:22;96640.59;;;11.62;100.00
71457;BME280;59263;48.160;11.752;2023-05-03T09:30:48;96666.16;;;11.97;100.00
71457;BME280;59263;48.160;11.752;2023-05-03T09:33:14;96663.31;;;12.00;100.00
71457;BME280;59263;48.160;11.752;2023-05-03T09:35:57;96647.06;;;11.98;100.00
71457;BME280;59263;48.160;11.752;2023-05-03T09:38:28;96661.16;;;12.15;100.00
71457;BME280;59263;48.160;11.752;2023-05-03T09:40:53;96652.88;;;12.21;100.00
71457;BME280;59263;48.160;11.752;2023-05-03T09:43:18;96672.16;;;12.28;100.00
71457;BME280;59263;48.160;11.752;2023-05-03T09:45:44;96664.91;;;12.42;100.00
71457;BME280;59263;48.160;11.752;2023-05-03T09:48:10;96650.78;;;12.65;100.00
71457;BME280;59263;48.160;11.752;2023-05-03T09:50:36;96628.63;;;12.71;100.00
71457;BME280;59263;48.160;11.752;2023-05-03T09:53:03;96649.13;;;13.13;100.00
71457;BME280;59263;48.160;11.752;2023-05-03T09:55:36;96637.50;;;13.36;100.00
71457;BME280;59263;48.160;11.752;2023-05-03T09:58:03;96608.63;;;13.39;100.00
71457;BME280;59263;48.160;11.752;2023-05-03T10:00:39;96627.97;;;13.64;100.00
71457;BME280;59263;48.160;11.752;2023-05-03T10:03:09;96589.91;;;13.36;100.00
71457;BME280;59263;48.160;11.752;2023-05-03T10:05:42;96588.59;;;13.49;100.00
71457;BME280;59263;48.160;11.752;2023-05-03T10:08:11;96613.22;;;13.55;100.00
71457;BME280;59263;48.160;11.752;2023-05-03T10:10:43;96632.06;;;13.67;100.00
71457;BME280;59263;48.160;11.752;2023-05-03T10:13:11;96615.63;;;13.76;100.00
71457;BME280;59263;48.160;11.752;2023-05-03T10:15:37;96585.28;;;13.57;100.00
71457;BME280;59263;48.160;11.752;2023-05-03T10:18:05;96623.78;;;13.91;100.00
71457;BME280;59263;48.160;11.752;2023-05-03T10:20:39;96621.75;;;14.12;100.00
71457;BME280;59263;48.160;11.752;2023-05-03T10:23:10;96608.16;;;14.18;100.00
71457;BME280;59263;48.160;11.752;2023-05-03T10:25:37;96586.88;;;14.23;100.00
71457;BME280;59263;48.160;11.752;2023-05-03T10:28:07;96612.56;;;14.63;100.00
71457;BME280;59263;48.160;11.752;2023-05-03T10:30:39;96608.44;;;14.79;100.00
71457;BME280;59263;48.160;11.752;2023-05-03T10:35:48;96587.59;;;14.61;100.00
71457;BME280;59263;48.160;11.752;2023-05-03T10:38:19;96606.13;;;14.75;100.00
71457;BME280;59263;48.160;11.752;2023-05-03T10:40:45;96601.63;;;14.77;100.00
71457;BME280;59263;48.160;11.752;2023-05-03T10:45:57;96587.47;;;14.62;100.00
71457;BME280;59263;48.160;11.752;2023-05-03T10:48:23;96570.47;;;14.40;100.00
71457;BME280;59263;48.160;11.752;2023-05-03T10:50:49;96570.13;;;14.53;100.00
71457;BME280;59263;48.160;11.752;2023-05-03T10:56:05;96588.19;;;14.90;100.00
71457;BME280;59263;48.160;11.752;2023-05-03T10:58:41;96580.28;;;15.00;100.00
71457;BME280;59263;48.160;11.752;2023-05-03T11:01:08;96594.72;;;15.12;100.00
71457;BME280;59263;48.160;11.752;2023-05-03T11:06:36;96589.09;;;14.81;100.00
71457;BME280;59263;48.160;11.752;2023-05-03T11:09:04;96590.31;;;14.69;100.00
71457;BME280;59263;48.160;11.752;2023-05-03T11:11:31;96588.53;;;14.69;100.00
71457;BME280;59263;48.160;11.752;2023-05-03T11:13:57;96581.06;;;14.74;100.00
71457;BME280;59263;48.160;11.752;2023-05-03T11:16:23;96574.63;;;14.87;100.00
71457;BME280;59263;48.160;11.752;2023-05-03T11:18:49;96577.34;;;14.95;100.00
71457;BME280;59263;48.160;11.752;2023-05-03T11:21:16;96562.66;;;14.94;100.00
71457;BME280;59263;48.160;11.752;2023-05-03T11:23:42;96525.47;;;14.84;100.00
71457;BME280;59263;48.160;11.752;2023-05-03T11:26:08;96539.91;;;15.04;100.00
71457;BME280;59263;48.160;11.752;2023-05-03T11:28:37;96543.03;;;15.34;100.00
71457;BME280;59263;48.160;11.752;2023-05-03T11:31:05;96530.59;;;15.28;100.00
71457;BME280;59263;48.160;11.752;2023-05-03T11:33:32;96523.16;;;15.33;100.00
71457;BME280;59263;48.160;11.752;2023-05-03T11:36:03;96548.69;;;15.55;100.00
71457;BME280;59263;48.160;11.752;2023-05-03T11:38:31;96541.13;;;15.70;100.00
71457;BME280;59263;48.160;11.752;2023-05-03T11:40:58;96534.78;;;15.72;100.00
71457;BME280;59263;48.160;11.752;2023-05-03T11:43:24;96505.63;;;15.51;100.00
71457;BME280;59263;48.160;11.752;2023-05-03T11:45:53;96548.06;;;15.95;100.00
71457;BME280;59263;48.160;11.752;2023-05-03T11:48:20;96534.84;;;15.97;100.00
71457;BME280;59263;48.160;11.752;2023-05-03T11:50:51;96526.78;;;15.74;100.00
71457;BME280;59263;48.160;11.752;2023-05-03T11:53:19;96545.78;;;16.01;100.00
71457;BME280;59263;48.160;11.752;2023-05-03T11:55:47;96543.34;;;15.91;100.00
71457;BME280;59263;48.160;11.752;2023-05-03T11:58:14;96516.28;;;15.58;100.00
71457;BME280;59263;48.160;11.752;2023-05-03T12:00:55;96529.91;;;15.43;100.00
71457;BME280;59263;48.160;11.752;2023-05-03T12:06:33;96489.19;;;15.59;100.00
71457;BME280;59263;48.160;11.752;2023-05-03T12:09:48;96507.31;;;16.03;100.00
71457;BME280;59263;48.160;11.752;2023-05-03T12:12:31;96492.34;;;16.21;100.00
71457;BME280;59263;48.160;11.752;2023-05-03T12:14:57;96533.31;;;16.29;100.00
71457;BME280;59263;48.160;11.752;2023-05-03T12:17:37;96511.66;;;15.86;100.00
71457;BME280;59263;48.160;11.752;2023-05-03T12:20:15;96520.72;;;15.65;100.00
71457;BME280;59263;48.160;11.752;2023-05-03T12:22:41;96460.34;;;15.18;100.00
71457;BME280;59263;48.160;11.752;2023-05-03T12:25:07;96496.88;;;15.26;100.00
71457;BME280;59263;48.160;11.752;2023-05-03T12:27:32;96506.91;;;15.39;100.00
71457;BME280;59263;48.160;11.752;2023-05-03T12:29:58;96506.47;;;15.60;100.00
71457;BME280;59263;48.160;11.752;2023-05-03T12:32:23;96466.78;;;15.40;100.00
71457;BME280;59263;48.160;11.752;2023-05-03T12:34:49;96478.53;;;15.44;100.00
71457;BME280;59263;48.160;11.752;2023-05-03T12:37:14;96476.59;;;15.46;100.00
71457;BME280;59263;48.160;11.752;2023-05-03T12:39:40;96461.31;;;15.59;100.00
71457;BME280;59263;48.160;11.752;2023-05-03T12:42:06;96482.81;;;15.95;100.00
71457;BME280;59263;48.160;11.752;2023-05-03T12:44:32;96506.84;;;16.15;100.00
71457;BME280;59263;48.160;11.752;2023-05-03T12:46:57;96492.56;;;15.85;100.00
71457;BME280;59263;48.160;11.752;2023-05-03T12:49:22;96491.75;;;15.85;100.00
71457;BME280;59263;48.160;11.752;2023-05-03T12:51:48;96488.16;;;15.86;100.00
71457;BME280;59263;48.160;11.752;2023-05-03T12:54:13;96502.53;;;15.98;100.00
71457;BME280;59263;48.160;11.752;2023-05-03T12:56:38;96495.41;;;16.08;100.00
71457;BME280;59263;48.160;11.752;2023-05-03T12:59:04;96483.00;;;16.18;100.00
71457;BME280;59263;48.160;11.752;2023-05-03T13:01:29;96503.91;;;16.27;100.00
71457;BME280;59263;48.160;11.752;2023-05-03T13:03:55;96484.00;;;16.26;100.00
71457;BME280;59263;48.160;11.752;2023-05-03T13:06:20;96486.63;;;16.34;100.00
71457;BME280;59263;48.160;11.752;2023-05-03T13:08:45;96486.25;;;16.12;100.00
71457;BME280;59263;48.160;11.752;2023-05-03T13:11:11;96486.56;;;16.01;100.00
71457;BME280;59263;48.160;11.752;2023-05-03T13:13:36;96479.41;;;16.19;100.00